sensor_id;sensor_type;location;lat;lon;timestamp;P1;durP1;ratioP1;P2;durP2;ratioP2
75814;SDS011;70031;45.570;14.228;2023-08-21T00:01:48;26.50;;;19.88;;
75814;SDS011;70031;45.570;14.228;2023-08-21T00:03:48;25.70;;;18.70;;
75814;SDS011;70031;45.570;14.228;2023-08-21T00:05:49;21.88;;;19.17;;
75814;SDS011;70031;45.570;14.228;2023-08-21T00:07:49;30.67;;;22.92;;
75814;SDS011;70031;45.570;14.228;2023-08-21T00:09:51;30.90;;;20.20;;
75814;SDS011;70031;45.570;14.228;2023-08-21T00:11:51;21.25;;;18.25;;
75814;SDS011;70031;45.570;14.228;2023-08-21T00:13:51;22.73;;;19.75;;
75814;SDS011;70031;45.570;14.228;2023-08-21T00:15:52;23.73;;;20.30;;
75814;SDS011;70031;45.570;14.228;2023-08-21T00:17:52;27.02;;;18.50;;
75814;SDS011;70031;45.570;14.228;2023-08-21T00:19:52;23.15;;;17.95;;
75814;SDS011;70031;45.570;14.228;2023-08-21T00:21:53;58.63;;;19.35;;
75814;SDS011;70031;45.570;14.228;2023-08-21T00:23:54;22.05;;;19.48;;
75814;SDS011;70031;45.570;14.228;2023-08-21T00:25:55;23.48;;;20.92;;
75814;SDS011;70031;45.570;14.228;2023-08-21T00:27:55;22.08;;;19.13;;
75814;SDS011;70031;45.570;14.228;2023-08-21T00:29:57;22.42;;;18.90;;
75814;SDS011;70031;45.570;14.228;2023-08-21T00:32:00;24.20;;;18.55;;
75814;SDS011;70031;45.570;14.228;2023-08-21T00:34:00;21.20;;;18.80;;
75814;SDS011;70031;45.570;14.228;2023-08-21T00:36:00;21.40;;;18.35;;
75814;SDS011;70031;45.570;14.228;2023-08-21T00:38:01;23.92;;;20.95;;
75814;SDS011;70031;45.570;14.228;2023-08-21T00:40:01;23.58;;;20.75;;
75814;SDS011;70031;45.570;14.228;2023-08-21T00:42:02;21.17;;;18.38;;
75814;SDS011;70031;45.570;14.228;2023-08-21T00:44:02;23.45;;;20.90;;
75814;SDS011;70031;45.570;14.228;2023-08-21T00:46:03;24.92;;;22.23;;
75814;SDS011;70031;45.570;14.228;2023-08-21T00:48:04;21.92;;;19.52;;
75814;SDS011;70031;45.570;14.228;2023-08-21T00:50:05;22.80;;;20.23;;
75814;SDS011;70031;45.570;14.228;2023-08-21T00:52:07;26.77;;;22.48;;
75814;SDS011;70031;45.570;14.228;2023-08-21T00:54:10;26.98;;;24.08;;
75814;SDS011;70031;45.570;14.228;2023-08-21T00:56:11;31.75;;;23.65;;
75814;SDS011;70031;45.570;14.228;2023-08-21T00:58:12;29.88;;;23.40;;
75814;SDS011;70031;45.570;14.228;2023-08-21T01:00:13;27.20;;;22.67;;
75814;SDS011;70031;45.570;14.228;2023-08-21T01:02:13;31.67;;;25.25;;
75814;SDS011;70031;45.570;14.228;2023-08-21T01:04:14;28.90;;;25.00;;
75814;SDS011;70031;45.570;14.228;2023-08-21T01:06:14;27.13;;;23.02;;
75814;SDS011;70031;45.570;14.228;2023-08-21T01:08:21;30.10;;;23.60;;
75814;SDS011;70031;45.570;14.228;2023-08-21T01:10:38;30.20;;;25.20;;
75814;SDS011;70031;45.570;14.228;2023-08-21T01:12:48;33.42;;;24.33;;
75814;SDS011;70031;45.570;14.228;2023-08-21T01:16:56;29.50;;;23.77;;
75814;SDS011;70031;45.570;14.228;2023-08-21T01:19:00;31.08;;;26.90;;
75814;SDS011;70031;45.570;14.228;2023-08-21T01:21:02;31.20;;;25.10;;
75814;SDS011;70031;45.570;14.228;2023-08-21T01:23:04;30.35;;;24.13;;
75814;SDS011;70031;45.570;14.228;2023-08-21T01:25:08;28.13;;;24.30;;
75814;SDS011;70031;45.570;14.228;2023-08-21T01:27:11;33.72;;;25.92;;
75814;SDS011;70031;45.570;14.228;2023-08-21T01:29:13;30.48;;;22.27;;
75814;SDS011;70031;45.570;14.228;2023-08-21T01:31:32;24.90;;;19.70;;
75814;SDS011;70031;45.570;14.228;2023-08-21T01:33:39;25.40;;;20.50;;
75814;SDS011;70031;45.570;14.228;2023-08-21T01:35:44;22.02;;;19.63;;
75814;SDS011;70031;45.570;14.228;2023-08-21T01:37:44;23.30;;;19.05;;
75814;SDS011;70031;45.570;14.228;2023-08-21T01:39:45;29.92;;;20.88;;
75814;SDS011;70031;45.570;14.228;2023-08-21T01:41:46;26.65;;;22.23;;
75814;SDS011;70031;45.570;14.228;2023-08-21T01:43:46;25.33;;;20.85;;
75814;SDS011;70031;45.570;14.228;2023-08-21T01:45:46;24.52;;;21.40;;
75814;SDS011;70031;45.570;14.228;2023-08-21T01:47:47;25.83;;;21.40;;
75814;SDS011;70031;45.570;14.228;2023-08-21T01:49:47;26.48;;;22.10;;
75814;SDS011;70031;45.570;14.228;2023-08-21T01:51:47;38.08;;;26.67;;
75814;SDS011;70031;45.570;14.228;2023-08-21T01:53:48;29.77;;;23.25;;
75814;SDS011;70031;45.570;14.228;2023-08-21T01:55:48;28.63;;;22.75;;
75814;SDS011;70031;45.570;14.228;2023-08-21T01:57:48;35.22;;;25.92;;
75814;SDS011;70031;45.570;14.228;2023-08-21T01:59:49;34.28;;;26.40;;
75814;SDS011;70031;45.570;14.228;2023-08-21T02:01:49;29.58;;;24.25;;
75814;SDS011;70031;45.570;14.228;2023-08-21T02:03:50;27.70;;;21.52;;
75814;SDS011;70031;45.570;14.228;2023-08-21T02:05:51;33.13;;;24.08;;
75814;SDS011;70031;45.570;14.228;2023-08-21T02:07:51;38.05;;;23.10;;
75814;SDS011;70031;45.570;14.228;2023-08-21T02:09:51;37.78;;;21.80;;
75814;SDS011;70031;45.570;14.228;2023-08-21T02:11:52;64.00;;;22.83;;
75814;SDS011;70031;45.570;14.228;2023-08-21T02:13:52;29.27;;;24.08;;
75814;SDS011;70031;45.570;14.228;2023-08-21T02:15:52;36.05;;;24.67;;
75814;SDS011;70031;45.570;14.228;2023-08-21T02:17:53;71.47;;;25.02;;
75814;SDS011;70031;45.570;14.228;2023-08-21T02:19:54;174.63;;;26.95;;
75814;SDS011;70031;45.570;14.228;2023-08-21T02:21:54;62.20;;;24.80;;
75814;SDS011;70031;45.570;14.228;2023-08-21T02:23:55;91.50;;;27.10;;
75814;SDS011;70031;45.570;14.228;2023-08-21T02:25:55;120.30;;;29.88;;
75814;SDS011;70031;45.570;14.228;2023-08-21T02:27:56;112.28;;;29.73;;
75814;SDS011;70031;45.570;14.228;2023-08-21T02:29:56;123.20;;;29.88;;
75814;SDS011;70031;45.570;14.228;2023-08-21T02:31:56;217.32;;;34.00;;
75814;SDS011;70031;45.570;14.228;2023-08-21T02:33:57;185.40;;;35.35;;
75814;SDS011;70031;45.570;14.228;2023-08-21T02:35:57;141.88;;;34.20;;
75814;SDS011;70031;45.570;14.228;2023-08-21T02:37:57;47.88;;;30.95;;
75814;SDS011;70031;45.570;14.228;2023-08-21T02:39:58;84.35;;;31.08;;
75814;SDS011;70031;45.570;14.228;2023-08-21T02:41:59;369.52;;;44.03;;
75814;SDS011;70031;45.570;14.228;2023-08-21T02:44:00;171.88;;;38.28;;
75814;SDS011;70031;45.570;14.228;2023-08-21T02:46:00;163.07;;;36.53;;
75814;SDS011;70031;45.570;14.228;2023-08-21T02:48:00;162.45;;;40.10;;
75814;SDS011;70031;45.570;14.228;2023-08-21T02:50:02;317.05;;;47.67;;
75814;SDS011;70031;45.570;14.228;2023-08-21T02:52:03;124.72;;;37.83;;
75814;SDS011;70031;45.570;14.228;2023-08-21T02:54:03;198.88;;;38.90;;
75814;SDS011;70031;45.570;14.228;2023-08-21T02:56:04;179.40;;;36.25;;
75814;SDS011;70031;45.570;14.228;2023-08-21T02:58:04;101.85;;;33.20;;
75814;SDS011;70031;45.570;14.228;2023-08-21T03:00:05;181.02;;;39.35;;
75814;SDS011;70031;45.570;14.228;2023-08-21T03:02:07;177.10;;;40.92;;
75814;SDS011;70031;45.570;14.228;2023-08-21T03:04:08;289.25;;;46.40;;
75814;SDS011;70031;45.570;14.228;2023-08-21T03:06:08;395.15;;;51.72;;
75814;SDS011;70031;45.570;14.228;2023-08-21T03:08:08;84.65;;;36.60;;
75814;SDS011;70031;45.570;14.228;2023-08-21T03:10:09;131.82;;;38.60;;
75814;SDS011;70031;45.570;14.228;2023-08-21T03:12:09;373.58;;;47.28;;
75814;SDS011;70031;45.570;14.228;2023-08-21T03:14:10;235.98;;;39.58;;
75814;SDS011;70031;45.570;14.228;2023-08-21T03:16:10;122.32;;;32.88;;
75814;SDS011;70031;45.570;14.228;2023-08-21T03:18:10;337.27;;;44.88;;
75814;SDS011;70031;45.570;14.228;2023-08-21T03:20:11;241.27;;;52.22;;
75814;SDS011;70031;45.570;14.228;2023-08-21T03:22:11;167.23;;;39.53;;
75814;SDS011;70031;45.570;14.228;2023-08-21T03:24:12;134.55;;;34.90;;
75814;SDS011;70031;45.570;14.228;2023-08-21T03:26:12;133.77;;;34.85;;
75814;SDS011;70031;45.570;14.228;2023-08-21T03:28:12;204.10;;;38.47;;
75814;SDS011;70031;45.570;14.228;2023-08-21T03:30:13;166.50;;;36.78;;
75814;SDS011;70031;45.570;14.228;2023-08-21T03:32:17;87.93;;;32.83;;
75814;SDS011;70031;45.570;14.228;2023-08-21T03:34:18;252.57;;;42.40;;
75814;SDS011;70031;45.570;14.228;2023-08-21T03:36:19;171.27;;;38.58;;
75814;SDS011;70031;45.570;14.228;2023-08-21T03:38:19;131.23;;;38.17;;
75814;SDS011;70031;45.570;14.228;2023-08-21T03:40:19;130.85;;;33.38;;
75814;SDS011;70031;45.570;14.228;2023-08-21T03:42:20;120.38;;;35.17;;
75814;SDS011;70031;45.570;14.228;2023-08-21T03:44:20;89.50;;;33.88;;
75814;SDS011;70031;45.570;14.228;2023-08-21T03:46:20;133.00;;;33.67;;
75814;SDS011;70031;45.570;14.228;2023-08-21T03:48:21;110.18;;;34.25;;
75814;SDS011;70031;45.570;14.228;2023-08-21T03:50:22;95.22;;;30.92;;
75814;SDS011;70031;45.570;14.228;2023-08-21T03:52:23;59.97;;;29.15;;
75814;SDS011;70031;45.570;14.228;2023-08-21T03:54:23;61.15;;;31.00;;
75814;SDS011;70031;45.570;14.228;2023-08-21T03:56:23;75.00;;;31.10;;
75814;SDS011;70031;45.570;14.228;2023-08-21T03:58:24;101.32;;;32.00;;
75814;SDS011;70031;45.570;14.228;2023-08-21T04:00:26;245.00;;;38.90;;
75814;SDS011;70031;45.570;14.228;2023-08-21T04:02:27;124.63;;;30.05;;
75814;SDS011;70031;45.570;14.228;2023-08-21T04:04:27;64.50;;;30.17;;
75814;SDS011;70031;45.570;14.228;2023-08-21T04:06:27;223.55;;;34.67;;
75814;SDS011;70031;45.570;14.228;2023-08-21T04:08:28;121.78;;;32.85;;
75814;SDS011;70031;45.570;14.228;2023-08-21T04:10:28;300.83;;;40.42;;
75814;SDS011;70031;45.570;14.228;2023-08-21T04:12:29;95.88;;;29.02;;
75814;SDS011;70031;45.570;14.228;2023-08-21T04:14:29;125.15;;;28.95;;
75814;SDS011;70031;45.570;14.228;2023-08-21T04:16:29;136.85;;;32.55;;
75814;SDS011;70031;45.570;14.228;2023-08-21T04:18:30;95.55;;;29.83;;
75814;SDS011;70031;45.570;14.228;2023-08-21T04:20:31;117.80;;;32.83;;
75814;SDS011;70031;45.570;14.228;2023-08-21T04:22:31;113.70;;;31.50;;
75814;SDS011;70031;45.570;14.228;2023-08-21T04:24:31;189.68;;;37.42;;
75814;SDS011;70031;45.570;14.228;2023-08-21T04:26:32;186.32;;;37.28;;
75814;SDS011;70031;45.570;14.228;2023-08-21T04:28:32;207.52;;;37.75;;
75814;SDS011;70031;45.570;14.228;2023-08-21T04:30:33;154.52;;;38.75;;
75814;SDS011;70031;45.570;14.228;2023-08-21T04:32:34;177.75;;;41.65;;
75814;SDS011;70031;45.570;14.228;2023-08-21T04:34:34;219.30;;;43.97;;
75814;SDS011;70031;45.570;14.228;2023-08-21T04:36:35;125.30;;;36.40;;
75814;SDS011;70031;45.570;14.228;2023-08-21T04:38:36;149.70;;;36.88;;
75814;SDS011;70031;45.570;14.228;2023-08-21T04:40:36;193.40;;;41.05;;
75814;SDS011;70031;45.570;14.228;2023-08-21T04:42:37;249.60;;;42.38;;
75814;SDS011;70031;45.570;14.228;2023-08-21T04:44:37;208.90;;;43.92;;
75814;SDS011;70031;45.570;14.228;2023-08-21T04:46:38;169.45;;;37.45;;
75814;SDS011;70031;45.570;14.228;2023-08-21T04:48:38;193.07;;;40.63;;
75814;SDS011;70031;45.570;14.228;2023-08-21T04:50:38;418.73;;;48.95;;
75814;SDS011;70031;45.570;14.228;2023-08-21T04:52:39;152.18;;;36.22;;
75814;SDS011;70031;45.570;14.228;2023-08-21T04:54:39;229.02;;;41.22;;
75814;SDS011;70031;45.570;14.228;2023-08-21T04:56:39;218.02;;;39.58;;
75814;SDS011;70031;45.570;14.228;2023-08-21T04:58:40;239.20;;;41.90;;
75814;SDS011;70031;45.570;14.228;2023-08-21T05:00:40;272.90;;;44.40;;
75814;SDS011;70031;45.570;14.228;2023-08-21T05:02:40;194.18;;;36.75;;
75814;SDS011;70031;45.570;14.228;2023-08-21T05:04:41;111.32;;;33.85;;
75814;SDS011;70031;45.570;14.228;2023-08-21T05:06:41;173.88;;;39.55;;
75814;SDS011;70031;45.570;14.228;2023-08-21T05:08:42;189.30;;;39.72;;
75814;SDS011;70031;45.570;14.228;2023-08-21T05:10:42;230.63;;;42.92;;
75814;SDS011;70031;45.570;14.228;2023-08-21T05:12:42;162.13;;;40.92;;
75814;SDS011;70031;45.570;14.228;2023-08-21T05:14:43;427.42;;;50.35;;
75814;SDS011;70031;45.570;14.228;2023-08-21T05:16:43;180.32;;;39.00;;
75814;SDS011;70031;45.570;14.228;2023-08-21T05:18:43;136.52;;;37.72;;
75814;SDS011;70031;45.570;14.228;2023-08-21T05:20:44;215.18;;;39.75;;
75814;SDS011;70031;45.570;14.228;2023-08-21T05:22:44;219.68;;;40.58;;
75814;SDS011;70031;45.570;14.228;2023-08-21T05:24:44;124.18;;;34.38;;
75814;SDS011;70031;45.570;14.228;2023-08-21T05:26:45;80.47;;;37.20;;
75814;SDS011;70031;45.570;14.228;2023-08-21T05:28:45;70.03;;;35.03;;
75814;SDS011;70031;45.570;14.228;2023-08-21T05:30:46;76.15;;;34.45;;
75814;SDS011;70031;45.570;14.228;2023-08-21T05:32:48;88.45;;;37.28;;
75814;SDS011;70031;45.570;14.228;2023-08-21T05:34:49;112.72;;;36.88;;
75814;SDS011;70031;45.570;14.228;2023-08-21T05:36:49;98.47;;;37.63;;
75814;SDS011;70031;45.570;14.228;2023-08-21T05:38:49;77.78;;;34.95;;
75814;SDS011;70031;45.570;14.228;2023-08-21T05:40:51;73.93;;;35.17;;
75814;SDS011;70031;45.570;14.228;2023-08-21T05:42:51;82.28;;;37.97;;
75814;SDS011;70031;45.570;14.228;2023-08-21T05:44:51;64.57;;;34.47;;
75814;SDS011;70031;45.570;14.228;2023-08-21T05:46:52;83.35;;;31.80;;
75814;SDS011;70031;45.570;14.228;2023-08-21T05:48:53;54.40;;;30.75;;
75814;SDS011;70031;45.570;14.228;2023-08-21T05:50:53;67.97;;;31.88;;
75814;SDS011;70031;45.570;14.228;2023-08-21T05:52:54;74.60;;;30.83;;
75814;SDS011;70031;45.570;14.228;2023-08-21T05:54:54;51.20;;;26.00;;
75814;SDS011;70031;45.570;14.228;2023-08-21T05:56:55;31.33;;;25.08;;
75814;SDS011;70031;45.570;14.228;2023-08-21T05:58:55;33.47;;;27.27;;
75814;SDS011;70031;45.570;14.228;2023-08-21T06:00:55;33.53;;;26.48;;
75814;SDS011;70031;45.570;14.228;2023-08-21T06:02:56;30.38;;;27.13;;
75814;SDS011;70031;45.570;14.228;2023-08-21T06:04:57;32.78;;;27.40;;
75814;SDS011;70031;45.570;14.228;2023-08-21T06:06:58;31.77;;;28.27;;
75814;SDS011;70031;45.570;14.228;2023-08-21T06:08:58;38.05;;;27.50;;
75814;SDS011;70031;45.570;14.228;2023-08-21T06:10:58;33.53;;;27.77;;
75814;SDS011;70031;45.570;14.228;2023-08-21T06:12:59;34.58;;;26.52;;
75814;SDS011;70031;45.570;14.228;2023-08-21T06:14:59;35.88;;;27.02;;
75814;SDS011;70031;45.570;14.228;2023-08-21T06:17:00;28.70;;;25.20;;
75814;SDS011;70031;45.570;14.228;2023-08-21T06:19:01;28.27;;;25.08;;
75814;SDS011;70031;45.570;14.228;2023-08-21T06:21:02;36.00;;;25.95;;
75814;SDS011;70031;45.570;14.228;2023-08-21T06:23:05;32.83;;;26.75;;
75814;SDS011;70031;45.570;14.228;2023-08-21T06:25:05;29.40;;;26.13;;
75814;SDS011;70031;45.570;14.228;2023-08-21T06:27:06;33.30;;;24.63;;
75814;SDS011;70031;45.570;14.228;2023-08-21T06:29:06;33.38;;;25.27;;
75814;SDS011;70031;45.570;14.228;2023-08-21T06:31:08;39.15;;;24.60;;
75814;SDS011;70031;45.570;14.228;2023-08-21T06:33:09;36.33;;;22.75;;
75814;SDS011;70031;45.570;14.228;2023-08-21T06:35:09;32.03;;;21.33;;
75814;SDS011;70031;45.570;14.228;2023-08-21T06:37:09;26.17;;;22.80;;
75814;SDS011;70031;45.570;14.228;2023-08-21T06:39:10;36.50;;;24.75;;
75814;SDS011;70031;45.570;14.228;2023-08-21T06:41:10;27.52;;;22.60;;
75814;SDS011;70031;45.570;14.228;2023-08-21T06:43:11;26.02;;;21.42;;
75814;SDS011;70031;45.570;14.228;2023-08-21T06:45:11;27.42;;;19.23;;
75814;SDS011;70031;45.570;14.228;2023-08-21T06:47:11;31.02;;;19.50;;
75814;SDS011;70031;45.570;14.228;2023-08-21T06:49:12;25.95;;;19.10;;
75814;SDS011;70031;45.570;14.228;2023-08-21T06:51:12;23.85;;;18.77;;
75814;SDS011;70031;45.570;14.228;2023-08-21T06:53:13;30.08;;;18.20;;
75814;SDS011;70031;45.570;14.228;2023-08-21T06:55:13;25.63;;;17.25;;
75814;SDS011;70031;45.570;14.228;2023-08-21T06:57:13;25.40;;;15.52;;
75814;SDS011;70031;45.570;14.228;2023-08-21T06:59:14;22.42;;;16.05;;
75814;SDS011;70031;45.570;14.228;2023-08-21T07:01:15;16.52;;;13.52;;
75814;SDS011;70031;45.570;14.228;2023-08-21T07:03:15;23.80;;;14.30;;
75814;SDS011;70031;45.570;14.228;2023-08-21T07:05:16;16.83;;;13.18;;
75814;SDS011;70031;45.570;14.228;2023-08-21T07:07:16;26.13;;;14.48;;
75814;SDS011;70031;45.570;14.228;2023-08-21T07:09:16;15.30;;;13.65;;
75814;SDS011;70031;45.570;14.228;2023-08-21T07:11:17;16.80;;;13.13;;
75814;SDS011;70031;45.570;14.228;2023-08-21T07:13:17;15.55;;;13.98;;
75814;SDS011;70031;45.570;14.228;2023-08-21T07:15:18;16.40;;;14.70;;
75814;SDS011;70031;45.570;14.228;2023-08-21T07:17:18;18.30;;;12.50;;
75814;SDS011;70031;45.570;14.228;2023-08-21T07:19:19;15.50;;;12.40;;
75814;SDS011;70031;45.570;14.228;2023-08-21T07:21:20;17.42;;;12.80;;
75814;SDS011;70031;45.570;14.228;2023-08-21T07:23:20;13.20;;;11.70;;
75814;SDS011;70031;45.570;14.228;2023-08-21T07:25:21;13.57;;;11.15;;
75814;SDS011;70031;45.570;14.228;2023-08-21T07:27:25;13.27;;;11.50;;
75814;SDS011;70031;45.570;14.228;2023-08-21T07:29:26;15.15;;;11.52;;
75814;SDS011;70031;45.570;14.228;2023-08-21T07:31:26;14.05;;;12.20;;
75814;SDS011;70031;45.570;14.228;2023-08-21T07:33:27;15.20;;;11.18;;
75814;SDS011;70031;45.570;14.228;2023-08-21T07:35:27;12.77;;;11.07;;
75814;SDS011;70031;45.570;14.228;2023-08-21T07:37:27;13.75;;;10.57;;
75814;SDS011;70031;45.570;14.228;2023-08-21T07:39:28;11.88;;;10.68;;
75814;SDS011;70031;45.570;14.228;2023-08-21T07:41:28;12.63;;;10.95;;
75814;SDS011;70031;45.570;14.228;2023-08-21T07:43:29;11.80;;;10.40;;
75814;SDS011;70031;45.570;14.228;2023-08-21T07:45:29;13.35;;;10.25;;
75814;SDS011;70031;45.570;14.228;2023-08-21T07:47:29;15.27;;;9.43;;
75814;SDS011;70031;45.570;14.228;2023-08-21T07:49:30;11.52;;;9.23;;
75814;SDS011;70031;45.570;14.228;2023-08-21T07:51:34;15.90;;;10.27;;
75814;SDS011;70031;45.570;14.228;2023-08-21T07:53:34;12.57;;;9.40;;
75814;SDS011;70031;45.570;14.228;2023-08-21T07:55:35;13.20;;;9.43;;
75814;SDS011;70031;45.570;14.228;2023-08-21T07:57:35;10.95;;;9.90;;
75814;SDS011;70031;45.570;14.228;2023-08-21T07:59:36;10.70;;;9.57;;
75814;SDS011;70031;45.570;14.228;2023-08-21T08:01:36;11.27;;;9.88;;
75814;SDS011;70031;45.570;14.228;2023-08-21T08:03:39;14.00;;;9.15;;
75814;SDS011;70031;45.570;14.228;2023-08-21T08:05:39;10.88;;;9.43;;
75814;SDS011;70031;45.570;14.228;2023-08-21T08:07:42;12.52;;;10.23;;
75814;SDS011;70031;45.570;14.228;2023-08-21T08:09:42;12.07;;;9.82;;
75814;SDS011;70031;45.570;14.228;2023-08-21T08:11:43;11.35;;;9.20;;
75814;SDS011;70031;45.570;14.228;2023-08-21T08:13:43;11.80;;;9.25;;
75814;SDS011;70031;45.570;14.228;2023-08-21T08:15:44;14.65;;;9.35;;
75814;SDS011;70031;45.570;14.228;2023-08-21T08:17:44;13.18;;;9.77;;
75814;SDS011;70031;45.570;14.228;2023-08-21T08:19:52;10.82;;;8.75;;
75814;SDS011;70031;45.570;14.228;2023-08-21T08:21:52;11.60;;;8.48;;
75814;SDS011;70031;45.570;14.228;2023-08-21T08:23:52;13.25;;;9.07;;
75814;SDS011;70031;45.570;14.228;2023-08-21T08:25:53;11.25;;;10.05;;
75814;SDS011;70031;45.570;14.228;2023-08-21T08:27:56;11.27;;;9.32;;
75814;SDS011;70031;45.570;14.228;2023-08-21T08:29:56;9.40;;;8.35;;
75814;SDS011;70031;45.570;14.228;2023-08-21T08:31:57;13.35;;;9.70;;
75814;SDS011;70031;45.570;14.228;2023-08-21T08:33:57;11.80;;;8.68;;
75814;SDS011;70031;45.570;14.228;2023-08-21T08:35:57;14.07;;;10.32;;
75814;SDS011;70031;45.570;14.228;2023-08-21T08:37:58;10.50;;;8.90;;
75814;SDS011;70031;45.570;14.228;2023-08-21T08:39:58;11.00;;;9.48;;
75814;SDS011;70031;45.570;14.228;2023-08-21T08:42:02;13.20;;;9.60;;
75814;SDS011;70031;45.570;14.228;2023-08-21T08:44:04;10.95;;;9.02;;
75814;SDS011;70031;45.570;14.228;2023-08-21T08:46:05;11.20;;;8.57;;
75814;SDS011;70031;45.570;14.228;2023-08-21T08:48:07;11.15;;;9.27;;
75814;SDS011;70031;45.570;14.228;2023-08-21T08:50:08;9.68;;;8.68;;
75814;SDS011;70031;45.570;14.228;2023-08-21T08:52:09;10.88;;;8.80;;
75814;SDS011;70031;45.570;14.228;2023-08-21T08:54:11;9.50;;;8.48;;
75814;SDS011;70031;45.570;14.228;2023-08-21T08:56:12;9.40;;;8.50;;
75814;SDS011;70031;45.570;14.228;2023-08-21T08:58:13;9.57;;;8.57;;
75814;SDS011;70031;45.570;14.228;2023-08-21T09:00:16;10.05;;;8.70;;
75814;SDS011;70031;45.570;14.228;2023-08-21T09:02:16;11.07;;;8.75;;
75814;SDS011;70031;45.570;14.228;2023-08-21T09:04:17;9.52;;;8.63;;
75814;SDS011;70031;45.570;14.228;2023-08-21T09:06:17;11.02;;;7.95;;
75814;SDS011;70031;45.570;14.228;2023-08-21T09:08:18;56.75;;;31.13;;
75814;SDS011;70031;45.570;14.228;2023-08-21T09:10:19;16.30;;;9.00;;
75814;SDS011;70031;45.570;14.228;2023-08-21T09:12:20;12.68;;;8.65;;
75814;SDS011;70031;45.570;14.228;2023-08-21T09:14:28;10.75;;;7.95;;
75814;SDS011;70031;45.570;14.228;2023-08-21T09:16:28;11.00;;;7.78;;
75814;SDS011;70031;45.570;14.228;2023-08-21T09:18:28;10.25;;;8.23;;
75814;SDS011;70031;45.570;14.228;2023-08-21T09:20:34;10.23;;;8.57;;
75814;SDS011;70031;45.570;14.228;2023-08-21T09:22:35;9.85;;;7.78;;
75814;SDS011;70031;45.570;14.228;2023-08-21T09:24:35;14.00;;;7.68;;
75814;SDS011;70031;45.570;14.228;2023-08-21T09:26:37;10.40;;;8.05;;
75814;SDS011;70031;45.570;14.228;2023-08-21T09:28:37;11.77;;;7.43;;
75814;SDS011;70031;45.570;14.228;2023-08-21T09:30:47;9.07;;;7.25;;
75814;SDS011;70031;45.570;14.228;2023-08-21T09:32:58;10.15;;;7.75;;
75814;SDS011;70031;45.570;14.228;2023-08-21T09:35:04;9.05;;;6.65;;
75814;SDS011;70031;45.570;14.228;2023-08-21T09:37:06;8.35;;;6.63;;
75814;SDS011;70031;45.570;14.228;2023-08-21T09:41:14;12.00;;;6.80;;
75814;SDS011;70031;45.570;14.228;2023-08-21T09:43:23;10.15;;;7.70;;
75814;SDS011;70031;45.570;14.228;2023-08-21T09:45:24;9.27;;;7.35;;
75814;SDS011;70031;45.570;14.228;2023-08-21T09:47:26;9.00;;;6.97;;
75814;SDS011;70031;45.570;14.228;2023-08-21T09:49:26;8.38;;;6.47;;
75814;SDS011;70031;45.570;14.228;2023-08-21T09:51:27;10.57;;;6.38;;
75814;SDS011;70031;45.570;14.228;2023-08-21T09:53:27;7.93;;;6.50;;
75814;SDS011;70031;45.570;14.228;2023-08-21T09:55:28;11.70;;;6.18;;
75814;SDS011;70031;45.570;14.228;2023-08-21T09:57:32;9.07;;;6.32;;
75814;SDS011;70031;45.570;14.228;2023-08-21T09:59:34;10.18;;;6.32;;
75814;SDS011;70031;45.570;14.228;2023-08-21T10:01:43;8.70;;;5.75;;
75814;SDS011;70031;45.570;14.228;2023-08-21T10:03:47;8.40;;;6.28;;
75814;SDS011;70031;45.570;14.228;2023-08-21T10:05:48;8.65;;;5.97;;
75814;SDS011;70031;45.570;14.228;2023-08-21T10:07:49;8.63;;;6.70;;
75814;SDS011;70031;45.570;14.228;2023-08-21T10:09:50;10.13;;;6.47;;
75814;SDS011;70031;45.570;14.228;2023-08-21T10:11:52;8.52;;;6.50;;
75814;SDS011;70031;45.570;14.228;2023-08-21T10:15:55;9.95;;;7.18;;
75814;SDS011;70031;45.570;14.228;2023-08-21T10:17:56;11.70;;;6.15;;
75814;SDS011;70031;45.570;14.228;2023-08-21T10:20:02;9.50;;;6.07;;
75814;SDS011;70031;45.570;14.228;2023-08-21T10:22:03;9.82;;;5.70;;
75814;SDS011;70031;45.570;14.228;2023-08-21T10:24:04;8.10;;;5.80;;
75814;SDS011;70031;45.570;14.228;2023-08-21T10:26:05;8.50;;;5.85;;
75814;SDS011;70031;45.570;14.228;2023-08-21T10:28:06;9.63;;;6.05;;
75814;SDS011;70031;45.570;14.228;2023-08-21T10:30:11;12.43;;;5.55;;
75814;SDS011;70031;45.570;14.228;2023-08-21T10:32:15;7.43;;;5.90;;
75814;SDS011;70031;45.570;14.228;2023-08-21T10:34:22;8.98;;;6.10;;
75814;SDS011;70031;45.570;14.228;2023-08-21T10:38:58;9.70;;;6.10;;
75814;SDS011;70031;45.570;14.228;2023-08-21T10:41:08;8.18;;;5.97;;
75814;SDS011;70031;45.570;14.228;2023-08-21T10:45:53;8.18;;;5.80;;
75814;SDS011;70031;45.570;14.228;2023-08-21T10:47:58;7.82;;;5.50;;
75814;SDS011;70031;45.570;14.228;2023-08-21T10:50:02;10.30;;;5.80;;
75814;SDS011;70031;45.570;14.228;2023-08-21T10:52:04;8.98;;;5.65;;
75814;SDS011;70031;45.570;14.228;2023-08-21T10:54:15;8.73;;;5.40;;
75814;SDS011;70031;45.570;14.228;2023-08-21T10:56:16;7.40;;;5.38;;
75814;SDS011;70031;45.570;14.228;2023-08-21T10:58:16;9.00;;;5.75;;
75814;SDS011;70031;45.570;14.228;2023-08-21T11:00:17;8.23;;;6.25;;
75814;SDS011;70031;45.570;14.228;2023-08-21T11:02:18;7.95;;;5.20;;
75814;SDS011;70031;45.570;14.228;2023-08-21T11:04:19;7.63;;;5.55;;
75814;SDS011;70031;45.570;14.228;2023-08-21T11:06:19;6.70;;;5.13;;
75814;SDS011;70031;45.570;14.228;2023-08-21T11:08:19;9.93;;;5.65;;
75814;SDS011;70031;45.570;14.228;2023-08-21T11:10:23;9.82;;;5.57;;
75814;SDS011;70031;45.570;14.228;2023-08-21T11:12:24;9.57;;;6.07;;
75814;SDS011;70031;45.570;14.228;2023-08-21T11:14:25;6.43;;;5.50;;
75814;SDS011;70031;45.570;14.228;2023-08-21T11:16:26;9.70;;;5.40;;
75814;SDS011;70031;45.570;14.228;2023-08-21T11:18:33;6.30;;;5.60;;
75814;SDS011;70031;45.570;14.228;2023-08-21T11:20:35;9.52;;;6.13;;
75814;SDS011;70031;45.570;14.228;2023-08-21T11:22:36;10.73;;;5.63;;
75814;SDS011;70031;45.570;14.228;2023-08-21T11:26:37;6.85;;;5.18;;
75814;SDS011;70031;45.570;14.228;2023-08-21T11:28:37;6.65;;;5.25;;
75814;SDS011;70031;45.570;14.228;2023-08-21T11:30:38;9.27;;;5.35;;
75814;SDS011;70031;45.570;14.228;2023-08-21T11:32:39;9.63;;;5.50;;
75814;SDS011;70031;45.570;14.228;2023-08-21T11:34:40;8.73;;;5.40;;
75814;SDS011;70031;45.570;14.228;2023-08-21T11:36:41;8.77;;;6.05;;
75814;SDS011;70031;45.570;14.228;2023-08-21T11:38:42;10.35;;;5.75;;
75814;SDS011;70031;45.570;14.228;2023-08-21T11:40:42;12.57;;;6.20;;
75814;SDS011;70031;45.570;14.228;2023-08-21T11:42:51;7.65;;;5.38;;
75814;SDS011;70031;45.570;14.228;2023-08-21T11:44:52;12.18;;;5.68;;
75814;SDS011;70031;45.570;14.228;2023-08-21T11:46:53;7.85;;;5.53;;
75814;SDS011;70031;45.570;14.228;2023-08-21T11:48:53;9.95;;;5.90;;
75814;SDS011;70031;45.570;14.228;2023-08-21T11:50:54;8.63;;;5.78;;
75814;SDS011;70031;45.570;14.228;2023-08-21T11:52:55;7.25;;;5.35;;
75814;SDS011;70031;45.570;14.228;2023-08-21T11:54:55;8.30;;;5.90;;